You are not logged in, Click here to log in
ICAO: YBBN Country: 澳洲
Latitude: -27.3942 Longitude: 153.122
Total Arrivals: 11 Total Departures: 7
Latest Arrival: R3T58 (YSSY-YBBN)Arthur. Kung Latest Departure: HA444 (YBBN-PHNL)Arthur. Kung
Scenery:
METAR : YBBN 190800Z 04003KT CAVOK 14/12 Q1020 FM1000 24005KT CAVOK

布里斯本機場BNE